Vila Boa, Brazil
Current Conditions -  °F | °C
As of 12:00 AM on Monday 24 Nov 2014 (Local Time) from SBBR Reporting Station
Overcast Overcast  
Wind Chill: 70°   Ceiling: 8000
Heat Index: 70°   Visibility: 6mi
Dew Point: 64°   Wind: 3mph
Humidity: 83%   Direction: 350°N
Pressure: 30.12"   Gusts: NA
Location:  15.04°S, 47.06°W
Report Text: SBBR 240200Z 35003KT 9999 SCT020 OVC080 21/18 Q1020
Loading
Personal Weather Stations






























Interactive Weather Map New forecast layout! Learn more

10-Day Weather Forecast

Advertisements
Track Severe Weather on mobile